Time,TemperatureF,DewpointF,PressureIn,WindDirection,WindDirectionDegrees,WindSpeedMPH,WindSpeedGustMPH,Humidity,HourlyPrecipIn,Conditions,Clouds,dailyrainin,SolarRadiationWatts/m^2,SoftwareType,DateUTC
2013-05-17 00:02:00,43.0,29.0,-100.00,West,280,13.0,19.0,57,0.00,,,0.00,0.000000,,2013-05-17 07:02:00,
2013-05-17 00:11:00,43.0,29.0,-100.00,West,280,13.0,19.0,57,0.00,,,0.00,0.000000,,2013-05-17 07:11:00,
2013-05-17 00:12:00,43.0,30.0,-100.00,West,277,12.0,19.0,59,0.00,,,0.00,0.000000,,2013-05-17 07:12:00,
2013-05-17 00:43:00,43.0,30.0,-100.00,West,277,12.0,19.0,59,0.00,,,0.00,0.000000,,2013-05-17 07:43:00,
2013-05-17 00:53:00,43.0,30.0,-100.00,West,277,12.0,19.0,59,0.00,,,0.00,0.000000,,2013-05-17 07:53:00,
2013-05-17 01:02:00,43.0,30.0,-100.00,West,277,12.0,19.0,59,0.00,,,0.00,0.000000,,2013-05-17 08:02:00,
2013-05-17 01:12:00,42.0,30.0,-100.00,West,275,11.0,20.0,61,0.00,,,0.00,0.000000,,2013-05-17 08:12:00,
2013-05-17 01:43:00,42.0,30.0,-100.00,West,275,11.0,20.0,61,0.00,,,0.00,0.000000,,2013-05-17 08:43:00,
2013-05-17 01:52:00,42.0,30.0,-100.00,West,275,11.0,20.0,61,0.00,,,0.00,0.000000,,2013-05-17 08:52:00,
2013-05-17 02:02:00,42.0,30.0,-100.00,West,275,11.0,20.0,61,0.00,,,0.00,0.000000,,2013-05-17 09:02:00,
2013-05-17 02:12:00,41.0,31.0,-100.00,WSW,254,9.0,15.0,66,0.00,,,0.00,0.000000,,2013-05-17 09:12:00,
2013-05-17 02:33:00,41.0,31.0,-100.00,WSW,254,9.0,15.0,66,0.00,,,0.00,0.000000,,2013-05-17 09:33:00,
2013-05-17 02:42:00,41.0,31.0,-100.00,WSW,254,9.0,15.0,66,0.00,,,0.00,0.000000,,2013-05-17 09:42:00,
2013-05-17 02:53:00,41.0,31.0,-100.00,WSW,254,9.0,15.0,66,0.00,,,0.00,0.000000,,2013-05-17 09:53:00,
2013-05-17 03:03:00,41.0,31.0,-100.00,WSW,254,9.0,15.0,66,0.00,,,0.00,0.000000,,2013-05-17 10:03:00,
2013-05-17 03:12:00,41.0,33.0,-100.00,SSE,150,5.0,16.0,74,0.00,,,0.00,0.000000,,2013-05-17 10:12:00,
2013-05-17 03:42:00,41.0,33.0,-100.00,SSE,150,5.0,16.0,74,0.00,,,0.00,0.000000,,2013-05-17 10:42:00,
2013-05-17 03:54:00,41.0,33.0,-100.00,SSE,150,5.0,16.0,74,0.00,,,0.00,0.000000,,2013-05-17 10:54:00,
2013-05-17 04:02:00,41.0,33.0,-100.00,SSE,150,5.0,16.0,74,0.00,,,0.00,0.000000,,2013-05-17 11:02:00,
2013-05-17 04:12:00,40.0,33.0,-100.00,SSE,163,3.0,9.0,77,0.00,,,0.00,0.000000,,2013-05-17 11:12:00,
2013-05-17 04:34:00,40.0,33.0,-100.00,SSE,163,3.0,9.0,77,0.00,,,0.00,0.000000,,2013-05-17 11:34:00,
2013-05-17 04:42:00,40.0,33.0,-100.00,SSE,163,3.0,9.0,77,0.00,,,0.00,0.000000,,2013-05-17 11:42:00,
2013-05-17 04:53:00,40.0,33.0,-100.00,SSE,163,3.0,9.0,77,0.00,,,0.00,0.000000,,2013-05-17 11:53:00,
2013-05-17 05:02:00,40.0,33.0,-100.00,SSE,163,3.0,9.0,77,0.00,,,0.00,0.000000,,2013-05-17 12:02:00,
2013-05-17 05:12:00,38.0,36.0,-100.00,WNW,287,1.0,8.0,94,0.00,,,0.00,0.000000,,2013-05-17 12:12:00,
2013-05-17 05:33:00,38.0,36.0,-100.00,WNW,287,1.0,8.0,94,0.00,,,0.00,0.000000,,2013-05-17 12:33:00,
2013-05-17 05:43:00,38.0,36.0,-100.00,WNW,287,1.0,8.0,94,0.00,,,0.00,0.000000,,2013-05-17 12:43:00,
2013-05-17 05:53:00,38.0,36.0,-100.00,WNW,287,1.0,8.0,94,0.00,,,0.00,0.000000,,2013-05-17 12:53:00,
2013-05-17 06:03:00,38.0,36.0,-100.00,WNW,287,1.0,8.0,94,0.00,,,0.00,0.000000,,2013-05-17 13:03:00,
2013-05-17 06:12:00,38.0,36.0,-100.00,SE,128,0.0,2.0,92,0.00,,,0.00,9.000000,,2013-05-17 13:12:00,
2013-05-17 06:33:00,38.0,36.0,-100.00,SE,128,0.0,2.0,92,0.00,,,0.00,9.000000,,2013-05-17 13:33:00,
2013-05-17 06:42:00,38.0,36.0,-100.00,SE,128,0.0,2.0,92,0.00,,,0.00,9.000000,,2013-05-17 13:42:00,
2013-05-17 06:52:00,38.0,36.0,-100.00,SE,128,0.0,2.0,92,0.00,,,0.00,9.000000,,2013-05-17 13:52:00,
2013-05-17 07:02:00,38.0,36.0,-100.00,SE,128,0.0,2.0,92,0.00,,,0.00,9.000000,,2013-05-17 14:02:00,
2013-05-17 07:12:00,39.0,37.0,-100.00,WSW,257,0.0,4.0,92,0.00,,,0.00,42.000000,,2013-05-17 14:12:00,
2013-05-17 07:43:00,39.0,37.0,-100.00,WSW,257,0.0,4.0,92,0.00,,,0.00,42.000000,,2013-05-17 14:43:00,
2013-05-17 07:53:00,39.0,37.0,-100.00,WSW,257,0.0,4.0,92,0.00,,,0.00,42.000000,,2013-05-17 14:53:00,
2013-05-17 08:03:00,39.0,37.0,-100.00,WSW,257,0.0,4.0,92,0.00,,,0.00,42.000000,,2013-05-17 15:03:00,
2013-05-17 08:12:00,42.0,36.0,-100.00,SSW,198,2.0,4.0,79,0.00,,,0.00,129.000000,,2013-05-17 15:12:00,
2013-05-17 08:47:00,42.0,36.0,-100.00,SSW,198,2.0,4.0,79,0.00,,,0.00,129.000000,,2013-05-17 15:47:00,
2013-05-17 08:57:00,42.0,36.0,-100.00,SSW,198,2.0,4.0,79,0.00,,,0.00,129.000000,,2013-05-17 15:57:00,
2013-05-17 09:07:00,42.0,36.0,-100.00,SSW,198,2.0,4.0,79,0.00,,,0.00,129.000000,,2013-05-17 16:07:00,
2013-05-17 09:12:00,42.0,39.0,-100.00,SE,131,0.0,7.0,90,0.00,,,-99.99,155.000000,,2013-05-17 16:12:00,
2013-05-17 09:37:00,42.0,39.0,-100.00,SE,131,0.0,7.0,90,0.00,,,-99.99,155.000000,,2013-05-17 16:37:00,
2013-05-17 09:49:00,42.0,39.0,-100.00,SE,131,0.0,7.0,90,0.00,,,-99.99,155.000000,,2013-05-17 16:49:00,
2013-05-17 09:56:00,42.0,39.0,-100.00,SE,131,0.0,7.0,90,0.00,,,-99.99,155.000000,,2013-05-17 16:56:00,
2013-05-17 10:08:00,42.0,39.0,-100.00,SE,131,0.0,7.0,90,0.00,,,-99.99,155.000000,,2013-05-17 17:08:00,
2013-05-17 10:12:00,41.0,40.0,-100.00,SE,124,3.0,7.0,96,0.00,,,0.00,101.000000,,2013-05-17 17:12:00,
2013-05-17 10:40:00,41.0,-99.9,-100.00,SE,124,3.0,7.0,96,0.00,,,0.00,101.000000,,2013-05-17 17:40:00,
2013-05-17 10:49:00,41.0,40.0,-100.00,SE,124,3.0,7.0,96,0.00,,,0.00,101.000000,,2013-05-17 17:49:00,
2013-05-17 11:00:00,41.0,40.0,-100.00,SE,124,3.0,7.0,96,0.00,,,0.00,101.000000,,2013-05-17 18:00:00,
2013-05-17 11:08:00,41.0,40.0,-100.00,SE,124,3.0,7.0,96,0.00,,,0.00,101.000000,,2013-05-17 18:08:00,
2013-05-17 11:12:00,39.0,37.0,-100.00,West,266,3.0,8.0,93,0.00,,,0.00,123.000000,,2013-05-17 18:12:00,
2013-05-17 11:50:00,-999.0,-99.9,-100.00,West,266,3.0,8.0,93,0.00,,,0.00,123.000000,,2013-05-17 18:50:00,
2013-05-17 12:00:00,39.0,37.0,-100.00,West,266,3.0,8.0,93,0.00,,,0.00,123.000000,,2013-05-17 19:00:00,
2013-05-17 12:10:00,39.0,37.0,-100.00,West,266,3.0,8.0,93,0.00,,,0.00,123.000000,,2013-05-17 19:10:00,
2013-05-17 12:12:00,40.0,38.0,-100.00,WNW,300,6.0,12.0,92,0.00,,,0.00,277.000000,,2013-05-17 19:12:00,
2013-05-17 12:40:00,40.0,38.0,-100.00,WNW,300,6.0,12.0,92,0.00,,,0.00,277.000000,,2013-05-17 19:40:00,
2013-05-17 12:51:00,40.0,38.0,-100.00,WNW,300,6.0,12.0,92,0.00,,,0.00,277.000000,,2013-05-17 19:51:00,
2013-05-17 13:00:00,40.0,-99.9,-100.00,WNW,300,6.0,12.0,92,0.00,,,0.00,277.000000,,2013-05-17 20:00:00,
2013-05-17 13:09:00,40.0,38.0,-100.00,WNW,300,6.0,12.0,92,0.00,,,0.00,277.000000,,2013-05-17 20:09:00,
2013-05-17 13:12:00,40.0,37.0,-100.00,WNW,286,10.0,15.0,90,0.00,,,0.00,241.000000,,2013-05-17 20:12:00,
2013-05-17 13:50:00,40.0,37.0,-100.00,WNW,286,10.0,15.0,90,0.00,,,0.00,241.000000,,2013-05-17 20:50:00,
2013-05-17 13:58:00,40.0,37.0,-100.00,WNW,286,10.0,15.0,90,0.00,,,0.00,241.000000,,2013-05-17 20:58:00,
2013-05-17 14:07:00,40.0,37.0,-100.00,WNW,286,10.0,15.0,90,0.00,,,0.00,241.000000,,2013-05-17 21:07:00,
2013-05-17 14:12:00,41.0,38.0,-100.00,WSW,252,8.0,13.0,89,0.00,,,0.00,157.000000,,2013-05-17 21:12:00,
2013-05-17 14:39:00,41.0,38.0,-100.00,WSW,252,8.0,13.0,89,0.00,,,0.00,157.000000,,2013-05-17 21:39:00,
2013-05-17 14:49:00,41.0,38.0,-100.00,WSW,252,8.0,13.0,89,0.00,,,0.00,157.000000,,2013-05-17 21:49:00,
2013-05-17 14:58:00,41.0,38.0,-100.00,WSW,252,8.0,13.0,89,0.00,,,0.00,157.000000,,2013-05-17 21:58:00,
2013-05-17 15:06:00,41.0,38.0,-100.00,WSW,252,8.0,13.0,89,0.00,,,0.00,157.000000,,2013-05-17 22:06:00,
2013-05-17 15:12:00,43.0,38.0,-100.00,SSW,201,4.0,15.0,82,0.00,,,0.00,170.000000,,2013-05-17 22:12:00,
2013-05-17 15:38:00,43.0,38.0,-100.00,SSW,201,4.0,15.0,82,0.00,,,0.00,170.000000,,2013-05-17 22:38:00,
2013-05-17 15:47:00,43.0,38.0,-100.00,SSW,201,4.0,15.0,82,0.00,,,0.00,170.000000,,2013-05-17 22:47:00,
2013-05-17 15:55:00,43.0,38.0,-100.00,SSW,201,4.0,15.0,82,0.00,,,0.00,170.000000,,2013-05-17 22:55:00,
2013-05-17 16:04:00,43.0,38.0,-100.00,SSW,201,4.0,15.0,82,0.00,,,0.00,170.000000,,2013-05-17 23:04:00,
2013-05-17 16:12:00,40.0,36.0,-100.00,WSW,251,3.0,16.0,86,0.00,,,0.00,103.000000,,2013-05-17 23:12:00,
2013-05-17 16:38:00,40.0,36.0,-100.00,WSW,251,3.0,16.0,86,0.00,,,0.00,103.000000,,2013-05-17 23:38:00,
2013-05-17 16:47:00,40.0,36.0,-100.00,WSW,251,3.0,16.0,86,0.00,,,0.00,103.000000,,2013-05-17 23:47:00,
2013-05-17 16:54:00,40.0,36.0,-100.00,WSW,251,3.0,16.0,86,0.00,,,0.00,103.000000,,2013-05-17 23:54:00,
2013-05-17 17:02:00,40.0,36.0,-100.00,WSW,251,3.0,16.0,86,0.00,,,0.00,103.000000,,2013-05-18 00:02:00,
2013-05-17 17:12:00,35.0,32.0,-100.00,West,275,17.0,26.0,90,0.00,,,0.00,67.000000,,2013-05-18 00:12:00,
2013-05-17 17:34:00,35.0,32.0,-100.00,West,275,17.0,26.0,90,0.00,,,0.00,67.000000,,2013-05-18 00:34:00,
2013-05-17 17:45:00,35.0,32.0,-100.00,West,275,17.0,26.0,90,0.00,,,0.00,67.000000,,2013-05-18 00:45:00,
2013-05-17 17:54:00,35.0,32.0,-100.00,West,275,17.0,26.0,90,0.00,,,0.00,67.000000,,2013-05-18 00:54:00,
2013-05-17 18:02:00,35.0,32.0,-100.00,West,275,17.0,26.0,90,0.00,,,0.00,67.000000,,2013-05-18 01:02:00,
2013-05-17 18:32:00,37.0,33.0,-100.00,SW,221,4.0,21.0,84,0.00,,,0.00,53.000000,,2013-05-18 01:32:00,
2013-05-17 18:43:00,37.0,33.0,-100.00,SW,221,4.0,21.0,84,0.00,,,0.00,53.000000,,2013-05-18 01:43:00,
2013-05-17 18:52:00,37.0,33.0,-100.00,SW,221,4.0,21.0,84,0.00,,,0.00,53.000000,,2013-05-18 01:52:00,
2013-05-17 19:02:00,37.0,33.0,-100.00,SW,221,4.0,21.0,84,0.00,,,0.00,53.000000,,2013-05-18 02:02:00,
2013-05-17 19:11:00,37.0,33.0,-100.00,SW,221,4.0,21.0,84,0.00,,,0.00,53.000000,,2013-05-18 02:11:00,
2013-05-17 19:12:00,38.0,32.0,-100.00,WSW,254,10.0,17.0,79,0.00,,,0.00,44.000000,,2013-05-18 02:12:00,
2013-05-17 19:43:00,38.0,32.0,-100.00,WSW,254,10.0,17.0,79,0.00,,,0.00,44.000000,,2013-05-18 02:43:00,
2013-05-17 19:53:00,38.0,32.0,-100.00,WSW,254,10.0,17.0,79,0.00,,,0.00,44.000000,,2013-05-18 02:53:00,
2013-05-17 20:02:00,38.0,32.0,-100.00,WSW,254,10.0,17.0,79,0.00,,,0.00,44.000000,,2013-05-18 03:02:00,
2013-05-17 20:12:00,36.0,32.0,-100.00,West,278,8.0,22.0,85,0.00,,,0.00,4.000000,,2013-05-18 03:12:00,
2013-05-17 20:33:00,36.0,32.0,-100.00,West,278,8.0,22.0,85,0.00,,,0.00,4.000000,,2013-05-18 03:33:00,
2013-05-17 20:43:00,36.0,32.0,-100.00,West,278,8.0,22.0,85,0.00,,,0.00,4.000000,,2013-05-18 03:43:00,
2013-05-17 20:53:00,36.0,32.0,-100.00,West,278,8.0,22.0,85,0.00,,,0.00,4.000000,,2013-05-18 03:53:00,
2013-05-17 21:02:00,36.0,32.0,-100.00,West,278,8.0,22.0,85,0.00,,,0.00,4.000000,,2013-05-18 04:02:00,
2013-05-17 21:12:00,36.0,31.0,-100.00,West,268,3.0,12.0,82,0.00,,,0.00,0.000000,,2013-05-18 04:12:00,
2013-05-17 21:33:00,36.0,31.0,-100.00,West,268,3.0,12.0,82,0.00,,,0.00,0.000000,,2013-05-18 04:33:00,
2013-05-17 21:43:00,36.0,31.0,-100.00,West,268,3.0,12.0,82,0.00,,,0.00,0.000000,,2013-05-18 04:43:00,
2013-05-17 21:52:00,36.0,31.0,-100.00,West,268,3.0,12.0,82,0.00,,,0.00,0.000000,,2013-05-18 04:52:00,
2013-05-17 22:02:00,36.0,31.0,-100.00,West,268,3.0,12.0,82,0.00,,,0.00,0.000000,,2013-05-18 05:02:00,
2013-05-17 22:32:00,36.0,31.0,-100.00,West,270,0.0,0.0,83,0.00,,,0.00,0.000000,,2013-05-18 05:32:00,
2013-05-17 22:42:00,36.0,31.0,-100.00,West,270,0.0,0.0,83,0.00,,,0.00,0.000000,,2013-05-18 05:42:00,
2013-05-17 22:52:00,36.0,31.0,-100.00,West,270,0.0,0.0,83,0.00,,,0.00,0.000000,,2013-05-18 05:52:00,
2013-05-17 23:02:00,36.0,31.0,-100.00,West,270,0.0,0.0,83,0.00,,,0.00,0.000000,,2013-05-18 06:02:00,
2013-05-17 23:11:00,36.0,31.0,-100.00,West,270,0.0,0.0,83,0.00,,,0.00,0.000000,,2013-05-18 06:11:00,
2013-05-17 23:42:00,36.0,29.0,-100.00,West,277,9.0,14.0,76,0.00,,,0.00,0.000000,,2013-05-18 06:42:00,
2013-05-17 23:52:00,36.0,29.0,-100.00,West,277,9.0,14.0,76,0.00,,,0.00,0.000000,,2013-05-18 06:52:00,